Vinh Hung — XVFL — position and weather

sailwx.info

Track history (hours):
 
Tides and Currents Weather Stations Pressure Air Temp Water Temp Dewpoint Dewpoint Depression Visibility Wind Speed Wind Dir Waves Ship Positions

Vinh Hung

Last reported at 2015-Jun-03 15:33 UTC. Time now 2015-Aug-30 22:34 UTC.
Position N 24°05' E 118°23'.
Warning: this ship's position is months out of date.

Length 103 m; draft 7.4 m.

Type: Cargo ship. MMSI: 574206000.

Date/timePositionNaut miles runAvg speedWind from/ knotsBaromVisibWave heightAir tempDewpointWater temp
2015-Jun-03 15:33N 24°05' E 118°23'9 8.7
2015-Jun-03 14:33N 24°13' E 118°18'9 8.7
2015-Jun-03 13:33N 24°19' E 118°12'9 8.0
2015-Jun-03 12:25N 24°25' E 118°04'7 7.5
2015-Jun-03 11:30N 24°32' E 118°05'1 0.2
2015-Jun-03 07:30N 24°33' E 118°05'0 0.0
2015-Jun-03 04:12N 24°33' E 118°05'0 0.0
2015-Jun-03 03:06N 24°33' E 118°05'0 0.0
2015-Jun-03 02:24N 24°33' E 118°05'0 0.0
2015-Jun-03 01:12N 24°33' E 118°05'0 0.0
2015-Jun-03 00:24N 24°33' E 118°05'0 0.0
2015-Jun-02 23:18N 24°33' E 118°05'0 0.0
2015-Jun-02 22:24N 24°33' E 118°05'0 0.0
2015-Jun-02 21:06N 24°33' E 118°05'0 0.0
2015-Jun-02 19:18N 24°33' E 118°05'0 0.0
2015-Jun-02 18:12N 24°33' E 118°05'0 0.0
2015-Jun-02 17:12N 24°33' E 118°05'0 0.0
2015-Jun-02 16:12N 24°33' E 118°05'0 0.0
2015-Jun-02 13:18N 24°33' E 118°05'0 0.0
2015-Jun-02 10:18N 24°33' E 118°05'0 0.0
2015-Jun-02 08:30N 24°33' E 118°05'0 0.0
2015-Jun-02 07:33N 24°33' E 118°05'0 0.0
2015-Jun-02 05:18N 24°33' E 118°05'0 0.0
2015-Jun-02 04:21N 24°33' E 118°05'0 0.0
2015-Jun-02 02:18N 24°33' E 118°05'0 0.0
2015-Jun-02 01:24N 24°33' E 118°05'0 0.0
2015-Jun-02 00:18N 24°33' E 118°05'0 0.0
2015-Jun-01 22:24N 24°33' E 118°05'0 0.0
2015-Jun-01 21:24N 24°33' E 118°05'0 0.0
2015-Jun-01 19:24N 24°33' E 118°05'0 0.0
2015-Jun-01 17:18N 24°33' E 118°05'0 0.0
2015-Jun-01 16:24N 24°33' E 118°05'0 0.0
2015-Jun-01 14:06N 24°33' E 118°05'0 0.0
2015-Jun-01 13:06N 24°33' E 118°05'0 0.0
2015-Jun-01 12:06N 24°33' E 118°05'0 0.0
2015-Jun-01 11:06N 24°33' E 118°05'0 0.0
2015-Jun-01 09:09N 24°33' E 118°05'0 0.0
2015-Jun-01 08:18N 24°33' E 118°05'0 0.0
2015-Jun-01 07:06N 24°33' E 118°05'0 0.0
2015-Jun-01 06:18N 24°33' E 118°05'0 0.0
2015-Jun-01 05:12N 24°33' E 118°05'0 0.0
2015-Jun-01 02:31N 24°33' E 118°05'0 0.0
2015-Jun-01 01:25N 24°33' E 118°05'0 0.0
2015-Jun-01 00:25N 24°33' E 118°05'0 0.0
2015-May-31 23:31N 24°33' E 118°05'0 0.0
2015-May-31 22:28N 24°33' E 118°05'0 0.0
2015-May-31 21:31N 24°33' E 118°05'0 0.0
2015-May-31 20:31N 24°33' E 118°05'0 0.0
2015-May-31 18:28N 24°33' E 118°05'0 0.0
2015-May-31 15:13N 24°33' E 118°05'0 0.0
2015-May-31 12:25N 24°33' E 118°05'0 0.0
2015-May-31 10:31N 24°33' E 118°05'0 0.0
2015-May-31 09:31N 24°33' E 118°05'0 0.0
2015-May-31 08:07N 24°33' E 118°05'0 0.0
2015-May-31 02:33N 24°33' E 118°05'0 0.0
2015-May-31 01:15N 24°33' E 118°05'0 0.0
2015-May-30 22:21N 24°33' E 118°05'0 0.0
2015-May-30 21:33N 24°33' E 118°05'0 0.0
2015-May-30 18:27N 24°33' E 118°05'0 0.0
2015-May-30 17:27N 24°33' E 118°05'0 0.0
2015-May-30 16:15N 24°33' E 118°05'0 0.0
2015-May-30 13:09N 24°33' E 118°05'0 0.0
2015-May-30 12:33N 24°33' E 118°05'0 0.0
2015-May-30 11:27N 24°33' E 118°05'0 0.0
2015-May-30 10:27N 24°33' E 118°05'0 0.0
2015-May-30 09:09N 24°33' E 118°05'0 0.0
2015-May-30 08:27N 24°33' E 118°05'0 0.0
2015-May-30 07:28N 24°33' E 118°05'5 5.4
2015-May-30 06:33N 24°28' E 118°04'7 6.9
2015-May-30 05:33N 24°22' E 118°08'6 4.2
2015-May-30 04:10N 24°19' E 118°13'0 0.0
2015-May-30 03:17N 24°19' E 118°13'0 0.0
2015-May-30 02:22N 24°19' E 118°13'0 0.0
2015-May-30 01:28N 24°19' E 118°13'0 0.0
2015-May-30 00:22N 24°19' E 118°13'0 0.0
2015-May-29 23:04N 24°19' E 118°13'0 0.0
2015-May-29 22:23N 24°19' E 118°13'0 0.0
2015-May-29 21:10N 24°19' E 118°13'0 0.1
2015-May-29 20:22N 24°19' E 118°13'0 0.0
2015-May-29 19:28N 24°19' E 118°13'0 0.0
2015-May-29 18:10N 24°19' E 118°13'0 0.0
2015-May-29 17:04N 24°19' E 118°13'0 0.0
2015-May-29 16:22N 24°19' E 118°13'0 0.1
2015-May-29 15:22N 24°19' E 118°13'0 0.0
2015-May-29 14:29N 24°19' E 118°13'0 0.0
2015-May-29 13:17N 24°19' E 118°13'0 0.0
2015-May-29 12:23N 24°19' E 118°13'0 0.0
2015-May-29 10:29N 24°19' E 118°13'0 0.0
2015-May-29 09:17N 24°19' E 118°13'0 0.0
2015-May-29 08:23N 24°19' E 118°13'0 0.1
2015-May-29 07:28N 24°19' E 118°13'0 0.1
2015-May-29 06:29N 24°19' E 118°13'0 0.0
2015-May-29 05:22N 24°19' E 118°13'0 0.0
2015-May-29 04:28N 24°19' E 118°13'0 0.0
2015-May-29 03:22N 24°19' E 118°13'0 0.1
2015-May-29 02:16N 24°19' E 118°13'0 0.1
2015-May-29 01:22N 24°19' E 118°13'0 0.0
2015-May-29 00:22N 24°19' E 118°13'0 0.0
2015-May-28 23:22N 24°19' E 118°13'0 0.0
2015-May-28 22:28N 24°19' E 118°13'0 0.0
2015-May-28 21:28N 24°19' E 118°13'0 0.0
2015-May-28 18:28N 24°19' E 118°13'0 0.0
2015-May-28 16:10N 24°19' E 118°13'0 0.0
2015-May-28 15:04N 24°19' E 118°13'0 0.0
2015-May-28 10:22N 24°19' E 118°13'0 0.0
2015-May-28 09:28N 24°19' E 118°13'0 0.0
2015-May-28 07:16N 24°19' E 118°13'0 0.0
2015-May-28 06:28N 24°19' E 118°13'0 0.0
2015-May-28 04:28N 24°19' E 118°13'0 0.0
2015-May-28 03:10N 24°19' E 118°13'0 0.1
2015-May-28 02:16N 24°19' E 118°13'0 0.0
2015-May-28 01:22N 24°19' E 118°13'0 0.0
2015-May-28 00:29N 24°19' E 118°13'0 0.1
2015-May-27 23:22N 24°19' E 118°13'0 0.0
2015-May-27 22:22N 24°19' E 118°13'0 0.0
2015-May-27 21:16N 24°19' E 118°13'0 0.0
2015-May-27 20:22N 24°19' E 118°13'0 0.0
2015-May-27 19:04N 24°19' E 118°13'0 0.0
2015-May-27 18:28N 24°19' E 118°13'0 0.0
2015-May-27 17:22N 24°19' E 118°13'0 0.0
2015-May-27 15:22N 24°19' E 118°13'0 0.1
2015-May-27 14:28N 24°19' E 118°13'0 0.0
2015-May-27 10:28N 24°19' E 118°13'0 0.1
2015-May-27 09:04N 24°19' E 118°13'2 4.3
2015-May-27 08:29N 24°17' E 118°14'1111.7
2015-May-27 07:33N 24°08' E 118°22'6811.1
2015-May-27 01:25N 23°10' E 118°60'  
Track history (hours):
 
Tides and Currents Weather Stations Pressure Air Temp Water Temp Dewpoint Dewpoint Depression Visibility Wind Speed Wind Dir Waves Ship Positions

Vinh Hung

Last reported at 2015-Jun-03 15:33 UTC. Time now 2015-Aug-30 22:34 UTC.
Position N 24°05' E 118°23'.
Warning: this ship's position is months out of date.

Length 103 m; draft 7.4 m.

Type: Cargo ship. MMSI: 574206000.

Date/timePositionNaut miles runAvg speedWind from/ knotsBaromVisibWave heightAir tempDewpointWater temp
2015-Jun-03 15:33N 24°05' E 118°23'9 8.7
2015-Jun-03 14:33N 24°13' E 118°18'9 8.7
2015-Jun-03 13:33N 24°19' E 118°12'9 8.0
2015-Jun-03 12:25N 24°25' E 118°04'7 7.5
2015-Jun-03 11:30N 24°32' E 118°05'1 0.2
2015-Jun-03 07:30N 24°33' E 118°05'0 0.0
2015-Jun-03 04:12N 24°33' E 118°05'0 0.0
2015-Jun-03 03:06N 24°33' E 118°05'0 0.0
2015-Jun-03 02:24N 24°33' E 118°05'0 0.0
2015-Jun-03 01:12N 24°33' E 118°05'0 0.0
2015-Jun-03 00:24N 24°33' E 118°05'0 0.0
2015-Jun-02 23:18N 24°33' E 118°05'0 0.0
2015-Jun-02 22:24N 24°33' E 118°05'0 0.0
2015-Jun-02 21:06N 24°33' E 118°05'0 0.0
2015-Jun-02 19:18N 24°33' E 118°05'0 0.0
2015-Jun-02 18:12N 24°33' E 118°05'0 0.0
2015-Jun-02 17:12N 24°33' E 118°05'0 0.0
2015-Jun-02 16:12N 24°33' E 118°05'0 0.0
2015-Jun-02 13:18N 24°33' E 118°05'0 0.0
2015-Jun-02 10:18N 24°33' E 118°05'0 0.0
2015-Jun-02 08:30N 24°33' E 118°05'0 0.0
2015-Jun-02 07:33N 24°33' E 118°05'0 0.0
2015-Jun-02 05:18N 24°33' E 118°05'0 0.0
2015-Jun-02 04:21N 24°33' E 118°05'0 0.0
2015-Jun-02 02:18N 24°33' E 118°05'0 0.0
2015-Jun-02 01:24N 24°33' E 118°05'0 0.0
2015-Jun-02 00:18N 24°33' E 118°05'0 0.0
2015-Jun-01 22:24N 24°33' E 118°05'0 0.0
2015-Jun-01 21:24N 24°33' E 118°05'0 0.0
2015-Jun-01 19:24N 24°33' E 118°05'0 0.0
2015-Jun-01 17:18N 24°33' E 118°05'0 0.0
2015-Jun-01 16:24N 24°33' E 118°05'0 0.0
2015-Jun-01 14:06N 24°33' E 118°05'0 0.0
2015-Jun-01 13:06N 24°33' E 118°05'0 0.0
2015-Jun-01 12:06N 24°33' E 118°05'0 0.0
2015-Jun-01 11:06N 24°33' E 118°05'0 0.0
2015-Jun-01 09:09N 24°33' E 118°05'0 0.0
2015-Jun-01 08:18N 24°33' E 118°05'0 0.0
2015-Jun-01 07:06N 24°33' E 118°05'0 0.0
2015-Jun-01 06:18N 24°33' E 118°05'0 0.0
2015-Jun-01 05:12N 24°33' E 118°05'0 0.0
2015-Jun-01 02:31N 24°33' E 118°05'0 0.0
2015-Jun-01 01:25N 24°33' E 118°05'0 0.0
2015-Jun-01 00:25N 24°33' E 118°05'0 0.0
2015-May-31 23:31N 24°33' E 118°05'0 0.0
2015-May-31 22:28N 24°33' E 118°05'0 0.0
2015-May-31 21:31N 24°33' E 118°05'0 0.0
2015-May-31 20:31N 24°33' E 118°05'0 0.0
2015-May-31 18:28N 24°33' E 118°05'0 0.0
2015-May-31 15:13N 24°33' E 118°05'0 0.0
2015-May-31 12:25N 24°33' E 118°05'0 0.0
2015-May-31 10:31N 24°33' E 118°05'0 0.0
2015-May-31 09:31N 24°33' E 118°05'0 0.0
2015-May-31 08:07N 24°33' E 118°05'0 0.0
2015-May-31 02:33N 24°33' E 118°05'0 0.0
2015-May-31 01:15N 24°33' E 118°05'0 0.0
2015-May-30 22:21N 24°33' E 118°05'0 0.0
2015-May-30 21:33N 24°33' E 118°05'0 0.0
2015-May-30 18:27N 24°33' E 118°05'0 0.0
2015-May-30 17:27N 24°33' E 118°05'0 0.0
2015-May-30 16:15N 24°33' E 118°05'0 0.0
2015-May-30 13:09N 24°33' E 118°05'0 0.0
2015-May-30 12:33N 24°33' E 118°05'0 0.0
2015-May-30 11:27N 24°33' E 118°05'0 0.0
2015-May-30 10:27N 24°33' E 118°05'0 0.0
2015-May-30 09:09N 24°33' E 118°05'0 0.0
2015-May-30 08:27N 24°33' E 118°05'0 0.0
2015-May-30 07:28N 24°33' E 118°05'5 5.4
2015-May-30 06:33N 24°28' E 118°04'7 6.9
2015-May-30 05:33N 24°22' E 118°08'6 4.2
2015-May-30 04:10N 24°19' E 118°13'0 0.0
2015-May-30 03:17N 24°19' E 118°13'0 0.0
2015-May-30 02:22N 24°19' E 118°13'0 0.0
2015-May-30 01:28N 24°19' E 118°13'0 0.0
2015-May-30 00:22N 24°19' E 118°13'0 0.0
2015-May-29 23:04N 24°19' E 118°13'0 0.0
2015-May-29 22:23N 24°19' E 118°13'0 0.0
2015-May-29 21:10N 24°19' E 118°13'0 0.1
2015-May-29 20:22N 24°19' E 118°13'0 0.0
2015-May-29 19:28N 24°19' E 118°13'0 0.0
2015-May-29 18:10N 24°19' E 118°13'0 0.0
2015-May-29 17:04N 24°19' E 118°13'0 0.0
2015-May-29 16:22N 24°19' E 118°13'0 0.1
2015-May-29 15:22N 24°19' E 118°13'0 0.0
2015-May-29 14:29N 24°19' E 118°13'0 0.0
2015-May-29 13:17N 24°19' E 118°13'0 0.0
2015-May-29 12:23N 24°19' E 118°13'0 0.0
2015-May-29 10:29N 24°19' E 118°13'0 0.0
2015-May-29 09:17N 24°19' E 118°13'0 0.0
2015-May-29 08:23N 24°19' E 118°13'0 0.1
2015-May-29 07:28N 24°19' E 118°13'0 0.1
2015-May-29 06:29N 24°19' E 118°13'0 0.0
2015-May-29 05:22N 24°19' E 118°13'0 0.0
2015-May-29 04:28N 24°19' E 118°13'0 0.0
2015-May-29 03:22N 24°19' E 118°13'0 0.1
2015-May-29 02:16N 24°19' E 118°13'0 0.1
2015-May-29 01:22N 24°19' E 118°13'0 0.0
2015-May-29 00:22N 24°19' E 118°13'0 0.0
2015-May-28 23:22N 24°19' E 118°13'0 0.0
2015-May-28 22:28N 24°19' E 118°13'0 0.0
2015-May-28 21:28N 24°19' E 118°13'0 0.0
2015-May-28 18:28N 24°19' E 118°13'0 0.0
2015-May-28 16:10N 24°19' E 118°13'0 0.0
2015-May-28 15:04N 24°19' E 118°13'0 0.0
2015-May-28 10:22N 24°19' E 118°13'0 0.0
2015-May-28 09:28N 24°19' E 118°13'0 0.0
2015-May-28 07:16N 24°19' E 118°13'0 0.0
2015-May-28 06:28N 24°19' E 118°13'0 0.0
2015-May-28 04:28N 24°19' E 118°13'0 0.0
2015-May-28 03:10N 24°19' E 118°13'0 0.1
2015-May-28 02:16N 24°19' E 118°13'0 0.0
2015-May-28 01:22N 24°19' E 118°13'0 0.0
2015-May-28 00:29N 24°19' E 118°13'0 0.1
2015-May-27 23:22N 24°19' E 118°13'0 0.0
2015-May-27 22:22N 24°19' E 118°13'0 0.0
2015-May-27 21:16N 24°19' E 118°13'0 0.0
2015-May-27 20:22N 24°19' E 118°13'0 0.0
2015-May-27 19:04N 24°19' E 118°13'0 0.0
2015-May-27 18:28N 24°19' E 118°13'0 0.0
2015-May-27 17:22N 24°19' E 118°13'0 0.0
2015-May-27 15:22N 24°19' E 118°13'0 0.1
2015-May-27 14:28N 24°19' E 118°13'0 0.0
2015-May-27 10:28N 24°19' E 118°13'0 0.1
2015-May-27 09:04N 24°19' E 118°13'2 4.3
2015-May-27 08:29N 24°17' E 118°14'1111.7
2015-May-27 07:33N 24°08' E 118°22'6811.1
2015-May-27 01:25N 23°10' E 118°60'  

Dump ship's entire track history